Time;durP1;ratioP1;P1;durP2;ratioP2;P2;SDS_P1;SDS_P2;PMS_P1;PMS_P2;Temp;Humidity;BMP_temperature;BMP_pressure;BME280_temperature;BME280_humidity;BME280_pressure;Samples;Min_cycle;Max_cycle;Signal;HPM_P1;HPM_P2
2022/04/06 00:00:48;;;;;;;9.83;4.60;;;;;;;12.53;61.99;101030.76;1606580;88;21117;-67
2022/04/06 00:03:16;;;;;;;9.05;4.87;;;;;;;12.57;61.88;101028.48;1619815;88;21069;-66
2022/04/06 00:05:44;;;;;;;8.38;4.97;;;;;;;12.59;61.86;101027.98;1620765;86;21050;-66
2022/04/06 00:08:12;;;;;;;10.98;5.65;;;;;;;12.62;61.76;101029.23;1629039;88;21599;-67
2022/04/06 00:10:40;;;;;;;7.28;4.10;;;;;;;12.64;61.73;101030.05;1668291;86;21104;-67
2022/04/06 00:13:07;;;;;;;8.40;4.20;;;;;;;12.67;61.62;101036.52;1663302;86;21006;-66
2022/04/06 00:15:36;;;;;;;11.33;4.42;;;;;;;12.69;61.46;101037.33;1667314;86;21054;-66
2022/04/06 00:18:04;;;;;;;11.10;4.25;;;;;;;12.71;61.37;101043.37;1650918;86;21584;-66
2022/04/06 00:20:31;;;;;;;10.63;4.40;;;;;;;12.70;61.29;101044.25;1668870;86;21518;-66
2022/04/06 00:23:00;;;;;;;10.68;4.90;;;;;;;12.73;61.27;101044.19;1666584;86;21553;-67
2022/04/06 00:25:27;;;;;;;10.35;4.70;;;;;;;12.75;61.29;101054.58;1664335;86;21541;-67
2022/04/06 00:27:55;;;;;;;5.80;3.72;;;;;;;12.75;61.21;101055.45;1666612;85;21056;-67
2022/04/06 00:30:23;;;;;;;8.35;4.80;;;;;;;12.77;61.22;101051.04;1668462;86;21013;-67
2022/04/06 00:32:50;;;;;;;8.75;4.35;;;;;;;12.79;61.16;101051.86;1666892;86;21049;-67
2022/04/06 00:35:33;;;;;;;5.72;3.60;;;;;;;12.82;60.97;101051.76;1666854;86;21556;-67
2022/04/06 00:38:03;;;;;;;6.97;4.12;;;;;;;12.83;60.84;101063.07;1661801;86;21594;-67
2022/04/06 00:40:32;;;;;;;6.53;3.92;;;;;;;12.83;60.82;101069.16;1667016;86;21057;-67
2022/04/06 00:43:10;;;;;;;9.60;3.90;;;;;;;12.82;60.71;101056.98;1666960;85;21931;-67
2022/04/06 00:45:38;;;;;;;11.28;4.17;;;;;;;12.83;60.70;101057.41;1667096;86;21068;-67
2022/04/06 00:48:09;;;;;;;7.15;4.03;;;;;;;12.84;60.63;101056.49;1667140;86;21557;-66
2022/04/06 00:50:37;;;;;;;7.90;3.95;;;;;;;12.85;60.48;101053.00;1667151;86;21489;-66
2022/04/06 00:53:05;;;;;;;6.00;4.12;;;;;;;12.86;60.44;101058.62;1667793;86;21003;-66
2022/04/06 00:55:36;;;;;;;6.42;4.17;;;;;;;12.86;60.24;101054.70;1668349;86;21596;-67
2022/04/06 00:58:05;;;;;;;6.22;3.60;;;;;;;12.88;60.26;101057.30;1728605;82;21474;-67
2022/04/06 01:00:32;;;;;;;6.60;3.90;;;;;;;12.88;60.19;101051.59;1740149;82;21042;-66
2022/04/06 01:02:59;;;;;;;7.17;4.60;;;;;;;12.90;60.14;101055.02;1753252;82;21063;-66
2022/04/06 01:05:28;;;;;;;7.72;4.50;;;;;;;12.89;60.08;101048.10;1750249;82;21070;-67
2022/04/06 01:07:56;;;;;;;9.28;4.40;;;;;;;12.90;60.02;101052.41;1750712;80;21133;-67
2022/04/06 01:10:23;;;;;;;6.55;4.28;;;;;;;12.91;60.03;101061.98;1749249;82;21027;-67
2022/04/06 01:12:50;;;;;;;7.08;4.25;;;;;;;12.91;60.00;101069.81;1750047;82;21019;-66
2022/04/06 01:15:18;;;;;;;9.13;4.85;;;;;;;12.92;60.01;101074.59;1749604;81;21090;-66
2022/04/06 01:17:46;;;;;;;7.15;4.10;;;;;;;12.90;60.04;101064.16;1749964;81;21534;-66
2022/04/06 01:20:14;;;;;;;9.00;4.65;;;;;;;12.91;59.95;101068.50;1750180;82;21495;-66
2022/04/06 01:22:42;;;;;;;5.83;3.95;;;;;;;12.92;59.91;101068.90;1710914;83;21055;-66
2022/04/06 01:25:11;;;;;;;7.72;4.80;;;;;;;12.92;59.92;101060.23;1696021;84;21003;-66
2022/04/06 01:27:39;;;;;;;7.08;4.58;;;;;;;12.92;59.81;101068.90;1695231;84;21059;-66
2022/04/06 01:30:08;;;;;;;8.68;4.92;;;;;;;12.91;59.84;101072.42;1703762;84;21058;-67
2022/04/06 01:32:36;;;;;;;7.75;4.70;;;;;;;12.89;59.73;101067.69;1703760;84;21519;-66
2022/04/06 01:35:05;;;;;;;10.40;5.87;;;;;;;12.88;59.86;101073.80;1705227;84;21015;-66
2022/04/06 01:37:34;;;;;;;11.22;6.17;;;;;;;12.87;59.79;101073.41;1701361;84;21544;-66
2022/04/06 01:40:03;;;;;;;8.83;6.20;;;;;;;12.87;59.78;101073.41;1694871;84;21036;-66
2022/04/06 01:42:31;;;;;;;9.00;6.22;;;;;;;12.86;59.80;101082.13;1710549;84;21063;-66
2022/04/06 01:44:58;;;;;;;10.05;6.78;;;;;;;12.86;59.78;101079.51;1685787;84;21070;-67
2022/04/06 01:47:27;;;;;;;15.23;8.78;;;;;;;12.85;59.77;101067.36;1699036;84;21380;-67
2022/04/06 01:52:39;;;;;;;15.63;10.48;;;;;;;12.84;59.58;101059.55;1687334;84;21059;-67
2022/04/06 01:55:10;;;;;;;13.85;11.80;;;;;;;12.80;59.52;101065.30;1704684;84;21087;-68
2022/04/06 01:57:38;;;;;;;16.15;13.13;;;;;;;12.77;59.54;101061.48;1665280;85;21014;-68
2022/04/06 02:00:09;;;;;;;19.50;14.00;;;;;;;12.76;59.53;101075.42;1715003;83;21023;-67
2022/04/06 02:02:38;;;;;;;22.48;14.50;;;;;;;12.73;59.60;101072.91;1709390;84;21026;-67
2022/04/06 02:05:08;;;;;;;23.92;17.35;;;;;;;12.71;59.63;101076.00;1671471;85;21043;-67
2022/04/06 02:07:35;;;;;;;27.65;19.60;;;;;;;12.69;59.56;101076.49;1689371;83;21085;-67
2022/04/06 02:10:03;;;;;;;29.92;23.30;;;;;;;12.68;59.48;101089.12;1706548;83;21077;-67
2022/04/06 02:12:32;;;;;;;32.35;23.75;;;;;;;12.67;59.58;101088.73;1712791;83;21006;-68
2022/04/06 02:14:59;;;;;;;33.30;24.27;;;;;;;12.65;59.57;101090.96;1688032;85;21027;-68
2022/04/06 02:17:28;;;;;;;35.73;26.20;;;;;;;12.64;59.71;101087.48;1752841;82;21055;-68
2022/04/06 02:19:56;;;;;;;37.73;26.45;;;;;;;12.63;59.67;101071.39;1750663;82;21011;-68
2022/04/06 02:22:25;;;;;;;40.08;28.95;;;;;;;12.63;59.67;101077.92;1753330;82;21007;-68
2022/04/06 02:24:52;;;;;;;44.20;30.35;;;;;;;12.61;59.73;101083.63;1754409;82;21019;-68
2022/04/06 02:27:19;;;;;;;38.75;28.73;;;;;;;12.60;59.77;101087.16;1753609;82;21035;-68
2022/04/06 02:29:47;;;;;;;45.35;28.57;;;;;;;12.59;59.67;101085.42;1750546;82;21034;-68
2022/04/06 02:32:14;;;;;;;42.10;28.87;;;;;;;12.58;59.72;101091.55;1754020;82;21026;-68
2022/04/06 02:34:42;;;;;;;38.02;27.37;;;;;;;12.57;59.69;101102.04;1752995;82;21090;-68
2022/04/06 02:37:11;;;;;;;38.33;26.68;;;;;;;12.56;59.79;101101.17;1753426;82;21055;-68
2022/04/06 02:39:38;;;;;;;33.25;26.20;;;;;;;12.56;59.72;101111.62;1753397;82;21030;-68
2022/04/06 02:42:05;;;;;;;35.60;26.93;;;;;;;12.56;59.62;101110.75;1753293;82;21058;-68
2022/04/06 02:44:33;;;;;;;35.00;25.35;;;;;;;12.56;59.55;101110.75;1753626;82;21038;-68
2022/04/06 02:47:00;;;;;;;33.75;23.02;;;;;;;12.54;59.35;101113.41;1753658;82;21035;-68
2022/04/06 02:49:27;;;;;;;33.20;21.42;;;;;;;12.53;59.34;101109.06;1753780;82;20972;-68
2022/04/06 02:51:55;;;;;;;30.75;20.72;;;;;;;12.52;59.22;101114.33;1753789;82;21055;-68
2022/04/06 02:54:22;;;;;;;26.77;21.30;;;;;;;12.50;59.16;101126.13;1752967;82;22316;-68
2022/04/06 02:56:49;;;;;;;30.10;19.62;;;;;;;12.47;58.97;101132.70;1753547;82;21519;-68
2022/04/06 02:59:16;;;;;;;22.95;18.73;;;;;;;12.44;58.84;101130.19;1753513;82;21511;-68
2022/04/06 03:01:43;;;;;;;21.90;17.35;;;;;;;12.43;58.86;101141.50;1753442;82;20997;-68
2022/04/06 03:04:11;;;;;;;22.40;16.97;;;;;;;12.41;58.79;101132.84;1753474;82;21062;-68
2022/04/06 03:06:39;;;;;;;25.65;18.32;;;;;;;12.38;58.80;101136.85;1756616;80;21138;-68
2022/04/06 03:09:07;;;;;;;28.80;18.50;;;;;;;12.36;58.70;101139.95;1779390;81;21039;-68
2022/04/06 03:11:36;;;;;;;23.87;17.32;;;;;;;12.33;58.61;101142.61;1779334;81;21046;-67
2022/04/06 03:14:05;;;;;;;25.57;18.40;;;;;;;12.31;58.50;101140.48;1779296;81;21047;-68
2022/04/06 03:16:33;;;;;;;27.05;19.65;;;;;;;12.30;58.63;101144.44;1779174;81;20999;-67
2022/04/06 03:19:01;;;;;;;27.02;18.05;;;;;;;12.26;58.67;101142.36;1779075;81;21042;-67
2022/04/06 03:21:29;;;;;;;27.52;18.90;;;;;;;12.25;58.73;101140.62;1778977;81;21064;-67
2022/04/06 03:23:56;;;;;;;27.87;19.00;;;;;;;12.23;58.69;101147.62;1779363;81;21007;-67
2022/04/06 03:26:24;;;;;;;25.52;18.90;;;;;;;12.21;58.53;101153.33;1778922;81;21015;-68
2022/04/06 03:28:52;;;;;;;23.47;17.02;;;;;;;12.18;58.51;101155.98;1779066;81;21050;-68
2022/04/06 03:31:19;;;;;;;21.68;16.93;;;;;;;12.17;58.58;101156.89;1778992;81;21503;-68
2022/04/06 03:33:46;;;;;;;23.45;17.27;;;;;;;12.15;58.63;101153.45;1779020;81;21023;-68
2022/04/06 03:36:13;;;;;;;24.63;17.20;;;;;;;12.13;58.73;101160.46;1779226;81;21042;-68
2022/04/06 03:38:40;;;;;;;23.42;16.93;;;;;;;12.12;58.77;101167.42;1779373;81;21546;-68
2022/04/06 03:41:08;;;;;;;30.10;16.80;;;;;;;12.11;58.76;101176.59;1779185;80;21007;-68
2022/04/06 03:43:35;;;;;;;46.00;23.27;;;;;;;12.11;58.83;101172.68;1779306;81;21487;-68
2022/04/06 03:46:03;;;;;;;41.63;20.43;;;;;;;12.08;58.91;101168.81;1772343;81;21028;-68
2022/04/06 03:48:30;;;;;;;32.50;19.23;;;;;;;12.07;59.14;101173.64;1779145;81;21034;-68
2022/04/06 03:50:58;;;;;;;35.80;18.42;;;;;;;12.06;59.32;101174.52;1779339;81;21078;-68
2022/04/06 03:53:26;;;;;;;34.18;18.00;;;;;;;12.05;59.35;101169.77;1778806;81;21023;-69
2022/04/06 03:55:54;;;;;;;32.90;18.60;;;;;;;12.05;59.39;101174.11;1779355;81;21055;-68
2022/04/06 03:58:22;;;;;;;30.62;17.95;;;;;;;12.04;59.55;101178.91;1779080;79;21574;-68
2022/04/06 04:00:48;;;;;;;33.35;20.00;;;;;;;12.03;59.64;101178.07;1778966;80;21058;-69
2022/04/06 04:03:15;;;;;;;36.00;19.30;;;;;;;12.03;59.81;101177.20;1779257;81;21474;-68
2022/04/06 04:05:43;;;;;;;29.23;20.70;;;;;;;12.05;59.89;101188.46;1779141;81;21027;-69
2022/04/06 04:08:12;;;;;;;37.45;21.17;;;;;;;12.06;59.94;101183.20;1757567;80;21085;-68
2022/04/06 04:10:39;;;;;;;28.62;20.68;;;;;;;12.08;59.95;101187.08;1747471;82;21542;-68
2022/04/06 04:13:06;;;;;;;28.92;19.67;;;;;;;12.09;60.10;101187.50;1747558;82;21043;-68
2022/04/06 04:15:33;;;;;;;31.40;20.68;;;;;;;12.11;60.25;101190.94;1747560;82;21067;-67
2022/04/06 04:18:02;;;;;;;34.67;20.27;;;;;;;12.14;60.31;101190.42;1747325;82;21080;-67
2022/04/06 04:20:29;;;;;;;31.35;18.85;;;;;;;12.18;60.31;101193.81;1747787;82;21040;-68
2022/04/06 04:22:56;;;;;;;36.33;19.37;;;;;;;12.23;60.25;101199.80;1747801;82;21076;-68
2022/04/06 04:25:24;;;;;;;33.95;20.17;;;;;;;12.26;60.23;101195.84;1747569;82;21079;-67
2022/04/06 04:27:51;;;;;;;35.88;20.52;;;;;;;12.28;60.15;101187.06;1747719;82;21512;-67
2022/04/06 04:30:19;;;;;;;33.70;20.68;;;;;;;12.32;60.14;101195.70;1747810;82;21044;-67
2022/04/06 04:32:46;;;;;;;28.73;19.30;;;;;;;12.35;60.01;101200.84;1747957;82;21032;-68
2022/04/06 04:35:13;;;;;;;29.92;18.87;;;;;;;12.38;59.98;101203.40;1747306;82;21044;-67
2022/04/06 04:37:40;;;;;;;28.80;17.82;;;;;;;12.40;59.87;101200.31;1747456;82;21018;-67
2022/04/06 04:40:09;;;;;;;30.23;17.95;;;;;;;12.43;59.79;101209.36;1747465;82;21033;-68
2022/04/06 04:42:37;;;;;;;29.52;18.32;;;;;;;12.45;59.76;101220.63;1747184;82;21054;-68
2022/04/06 04:45:09;;;;;;;29.42;18.55;;;;;;;12.47;59.60;101231.89;1747650;82;21017;-68
2022/04/06 04:47:40;;;;;;;29.20;19.12;;;;;;;12.49;59.58;101230.10;1747684;81;21024;-67
2022/04/06 04:50:09;;;;;;;31.50;19.55;;;;;;;12.50;59.52;101225.75;1720027;83;21049;-67
2022/04/06 04:52:36;;;;;;;30.10;19.73;;;;;;;12.50;59.49;101231.84;1655121;87;21600;-67
2022/04/06 04:55:03;;;;;;;32.15;20.20;;;;;;;12.51;59.39;101228.31;1655128;87;21106;-67
2022/04/06 04:57:31;;;;;;;32.25;19.92;;;;;;;12.51;59.33;101237.92;1701476;83;21477;-67
2022/04/06 04:59:58;;;;;;;32.67;20.55;;;;;;;12.52;59.41;101244.41;1720133;83;21070;-67
2022/04/06 05:02:25;;;;;;;33.18;20.72;;;;;;;12.54;59.44;101249.14;1655161;87;21162;-66
2022/04/06 05:04:52;;;;;;;35.13;22.40;;;;;;;12.57;59.41;101252.14;1717296;83;21038;-67
2022/04/06 05:07:19;;;;;;;38.67;22.17;;;;;;;12.57;59.40;101254.28;1685853;83;21062;-67
2022/04/06 05:09:47;;;;;;;38.10;22.25;;;;;;;12.59;59.56;101251.19;1692311;85;21086;-66
2022/04/06 05:12:15;;;;;;;36.90;21.77;;;;;;;12.62;59.55;101244.61;1703485;84;21046;-67
2022/04/06 05:14:43;;;;;;;42.53;22.75;;;;;;;12.66;59.61;101246.26;1680643;85;21082;-66
2022/04/06 05:17:10;;;;;;;41.42;22.67;;;;;;;12.69;59.67;101243.59;1687461;84;21095;-66
2022/04/06 05:19:37;;;;;;;28.62;20.20;;;;;;;12.73;59.56;101242.63;1690759;84;21106;-66
2022/04/06 05:22:06;;;;;;;31.93;21.10;;;;;;;12.75;59.47;101246.06;1754318;82;21054;-66
2022/04/06 05:24:34;;;;;;;33.33;21.35;;;;;;;12.81;59.54;101253.76;1690016;83;21078;-67
2022/04/06 05:27:03;;;;;;;33.00;22.20;;;;;;;12.85;59.49;101258.02;1716477;83;21030;-66
2022/04/06 05:29:31;;;;;;;31.35;21.37;;;;;;;12.89;59.31;101260.97;1715286;83;21089;-66
2022/04/06 05:31:59;;;;;;;32.58;21.20;;;;;;;12.91;59.17;101256.56;1688902;83;21091;-66
2022/04/06 05:34:26;;;;;;;30.10;20.85;;;;;;;12.95;59.21;101256.91;1719197;83;21112;-66
2022/04/06 05:36:53;;;;;;;33.63;20.57;;;;;;;12.99;59.17;101261.16;1691727;85;21030;-67
2022/04/06 05:39:20;;;;;;;28.20;19.48;;;;;;;13.03;59.03;101270.64;1694517;84;21067;-67
2022/04/06 05:41:48;;;;;;;27.07;19.77;;;;;;;13.06;58.89;101272.36;1715630;83;21031;-67
2022/04/06 05:44:16;;;;;;;30.75;19.75;;;;;;;13.08;58.91;101271.02;1689511;85;21497;-67
2022/04/06 05:46:44;;;;;;;27.48;17.57;;;;;;;13.08;58.92;101275.33;1710390;83;21034;-67
2022/04/06 05:49:10;;;;;;;28.17;16.85;;;;;;;13.13;58.85;101284.84;1789917;80;21058;-67
2022/04/06 05:51:37;;;;;;;29.80;16.37;;;;;;;13.18;58.99;101279.04;1789936;80;21046;-66
2022/04/06 05:54:05;;;;;;;24.63;16.48;;;;;;;13.31;59.16;101281.34;1789716;80;21526;-66
2022/04/06 05:56:33;;;;;;;27.00;16.05;;;;;;;13.51;58.96;101278.20;1789955;80;21020;-66
2022/04/06 05:59:00;;;;;;;26.60;15.43;;;;;;;13.76;58.53;101276.69;1789667;80;21530;-65
2022/04/06 06:01:27;;;;;;;19.98;14.70;;;;;;;14.04;58.05;101285.50;1789519;80;21058;-65
2022/04/06 06:03:55;;;;;;;23.05;14.07;;;;;;;14.36;57.54;101282.85;1789812;80;21010;-65
2022/04/06 06:06:22;;;;;;;27.02;15.05;;;;;;;14.77;56.44;101288.64;1768795;80;21026;-65
2022/04/06 06:08:50;;;;;;;26.52;13.93;;;;;;;15.22;55.59;101289.83;1788203;80;21066;-66
2022/04/06 06:11:17;;;;;;;21.73;12.33;;;;;;;15.72;54.66;101288.19;1777752;80;21557;-65
2022/04/06 06:13:45;;;;;;;19.73;11.10;;;;;;;16.20;52.99;101282.05;1787649;80;21049;-65
2022/04/06 06:16:12;;;;;;;21.40;11.97;;;;;;;16.67;51.73;101282.09;1787301;80;21026;-65
2022/04/06 06:18:39;;;;;;;19.05;10.85;;;;;;;17.04;50.53;101274.48;1787474;80;20986;-65
2022/04/06 06:21:07;;;;;;;18.52;10.08;;;;;;;17.37;49.71;101270.45;1787355;80;21035;-65
2022/04/06 06:23:34;;;;;;;19.50;10.65;;;;;;;17.75;48.59;101275.01;1788032;80;21534;-66
2022/04/06 06:26:01;;;;;;;17.23;9.28;;;;;;;18.08;47.64;101275.77;1787373;79;21038;-66
2022/04/06 06:28:29;;;;;;;14.85;9.38;;;;;;;18.28;46.89;101271.80;1787487;80;21019;-66
2022/04/06 06:30:57;;;;;;;15.95;8.63;;;;;;;18.43;46.52;101276.35;1787314;79;21053;-66
2022/04/06 06:33:24;;;;;;;17.95;8.55;;;;;;;18.61;45.86;101282.13;1787979;80;21022;-66
2022/04/06 06:35:51;;;;;;;14.87;7.62;;;;;;;18.76;45.14;101277.45;1787639;80;21030;-66
2022/04/06 06:38:18;;;;;;;14.83;8.05;;;;;;;18.83;44.78;101274.94;1787659;80;21526;-65
2022/04/06 06:40:47;;;;;;;11.95;8.18;;;;;;;18.78;44.44;101270.33;1787391;80;21023;-66
2022/04/06 06:43:16;;;;;;;15.85;8.00;;;;;;;18.70;44.23;101275.11;1787618;80;21495;-66
2022/04/06 06:45:43;;;;;;;14.85;7.55;;;;;;;18.54;44.35;101283.34;1787447;80;21498;-65
2022/04/06 06:48:11;;;;;;;13.90;7.08;;;;;;;18.35;44.93;101281.13;1787366;80;21022;-65
2022/04/06 06:50:38;;;;;;;11.53;7.35;;;;;;;18.22;44.95;101280.81;1787662;80;21018;-65
2022/04/06 06:53:07;;;;;;;13.85;7.17;;;;;;;18.15;44.97;101283.80;1786959;80;21062;-65
2022/04/06 06:55:34;;;;;;;10.95;7.08;;;;;;;18.10;45.07;101285.77;1787454;80;21039;-66
2022/04/06 06:58:01;;;;;;;11.12;7.75;;;;;;;18.06;45.04;101285.05;1787308;80;21081;-65
2022/04/06 07:00:28;;;;;;;11.65;6.67;;;;;;;18.07;45.01;101294.69;1787319;80;21554;-65
2022/04/06 07:02:56;;;;;;;11.28;8.30;;;;;;;18.00;45.04;101295.00;1787789;80;21034;-65
2022/04/06 07:05:23;;;;;;;13.03;8.68;;;;;;;17.96;45.18;101300.00;1787735;80;21064;-64
2022/04/06 07:08:03;;;;;;;14.30;9.70;;;;;;;17.97;45.20;101297.78;1780069;80;21031;-65
2022/04/06 07:10:31;;;;;;;17.60;9.10;;;;;;;18.03;44.98;101295.74;1747184;82;21015;-65
2022/04/06 07:12:59;;;;;;;14.53;8.15;;;;;;;18.11;45.39;101300.66;1747557;80;21016;-64
2022/04/06 07:15:26;;;;;;;13.25;7.37;;;;;;;18.28;44.93;101308.69;1747461;82;21094;-65
2022/04/06 07:17:55;;;;;;;11.50;7.97;;;;;;;18.43;44.31;101309.29;1747440;82;21022;-65
2022/04/06 07:20:23;;;;;;;11.57;7.60;;;;;;;18.53;44.03;101309.30;1747713;82;20975;-65
2022/04/06 07:22:53;;;;;;;11.97;7.47;;;;;;;18.62;43.89;101316.80;1747766;82;21041;-65
2022/04/06 07:25:20;;;;;;;13.85;7.85;;;;;;;18.71;43.78;101318.16;1747576;82;21015;-65
2022/04/06 07:27:49;;;;;;;15.90;7.62;;;;;;;18.80;43.42;101318.57;1747375;82;21091;-65
2022/04/06 07:30:16;;;;;;;12.78;7.33;;;;;;;18.89;43.23;101316.84;1747416;82;21745;-65
2022/04/06 07:32:43;;;;;;;13.53;7.80;;;;;;;18.94;43.08;101321.41;1748005;82;21032;-65
2022/04/06 07:35:11;;;;;;;18.02;8.38;;;;;;;18.96;42.81;101322.19;1747574;80;21539;-65
2022/04/06 07:37:42;;;;;;;11.97;8.35;;;;;;;18.87;42.74;101330.56;1747567;82;20998;-65
2022/04/06 07:40:12;;;;;;;13.23;7.83;;;;;;;18.70;42.85;101334.43;1674187;83;21154;-65
2022/04/06 07:42:39;;;;;;;11.33;7.40;;;;;;;18.45;43.22;101321.97;1674474;83;21015;-65
2022/04/06 07:47:49;;;;;;;11.57;7.50;;;;;;;17.97;44.12;101330.21;1622547;88;21154;-65
2022/04/06 07:50:18;;;;;;;15.60;8.88;;;;;;;17.75;44.51;101328.10;1616852;87;21623;-65
2022/04/06 07:52:46;;;;;;;18.15;8.10;;;;;;;17.55;44.81;101336.84;1619779;88;21062;-65
2022/04/06 07:55:13;;;;;;;15.53;8.05;;;;;;;17.36;45.04;101324.00;1617333;88;21545;-66
2022/04/06 07:57:40;;;;;;;10.72;7.22;;;;;;;17.18;45.45;101331.77;1619263;88;21093;-65
2022/04/06 08:02:45;;;;;;;16.17;8.30;;;;;;;16.80;46.48;101333.25;1570734;91;21129;-65
2022/04/06 08:05:13;;;;;;;12.58;8.38;;;;;;;16.66;46.85;101337.73;1562822;92;21132;-64
2022/04/06 08:07:43;;;;;;;19.25;8.60;;;;;;;16.54;47.09;101338.63;1562024;92;21114;-65
2022/04/06 08:10:13;;;;;;;12.98;8.58;;;;;;;16.44;47.36;101339.86;1553060;91;21075;-65
2022/04/06 08:12:40;;;;;;;10.63;8.28;;;;;;;16.35;47.59;101345.42;1564922;91;21654;-65
2022/04/06 08:15:10;;;;;;;15.30;8.73;;;;;;;16.27;47.83;101341.33;1568774;91;21078;-65
2022/04/06 08:17:42;;;;;;;15.50;9.75;;;;;;;16.19;48.07;101338.13;1568617;91;21585;-65
2022/04/06 08:20:13;;;;;;;17.57;10.98;;;;;;;16.15;48.34;101344.39;1568460;91;21132;-65
2022/04/06 08:22:41;;;;;;;17.10;11.00;;;;;;;16.10;48.72;101343.68;1564245;91;21119;-65
2022/04/06 08:25:09;;;;;;;16.32;11.55;;;;;;;16.09;48.67;101349.83;1570662;91;21602;-65
2022/04/06 08:27:40;;;;;;;15.53;12.85;;;;;;;16.09;48.69;101351.14;1568191;91;21129;-65
2022/04/06 08:30:11;;;;;;;20.40;14.25;;;;;;;16.09;48.75;101356.88;1537785;93;21080;-65
2022/04/06 08:32:39;;;;;;;18.80;13.28;;;;;;;16.06;48.84;101355.20;1514461;94;21111;-65
2022/04/06 08:35:08;;;;;;;18.73;13.53;;;;;;;16.10;49.03;101355.50;1514305;94;21096;-65
2022/04/06 08:37:38;;;;;;;22.65;13.45;;;;;;;16.14;49.11;101345.28;1532815;92;21080;-65
2022/04/06 08:40:12;;;;;;;18.60;12.68;;;;;;;16.19;49.03;101343.38;1537188;93;21114;-65
2022/04/06 08:42:40;;;;;;;15.13;11.55;;;;;;;16.24;48.68;101349.30;1563242;91;21115;-65
2022/04/06 08:45:10;;;;;;;20.02;12.23;;;;;;;16.25;48.85;101341.84;1588472;89;21107;-65
2022/04/06 08:47:37;;;;;;;15.35;11.30;;;;;;;16.27;48.79;101346.58;1600146;89;21108;-65
2022/04/06 08:50:06;;;;;;;17.10;10.75;;;;;;;16.28;48.67;101345.65;1578300;89;21098;-65
2022/04/06 08:52:33;;;;;;;13.20;9.73;;;;;;;16.28;48.67;101341.71;1613611;89;21060;-65
2022/04/06 08:55:00;;;;;;;14.75;9.20;;;;;;;16.30;48.80;101337.70;1613768;89;21066;-65
2022/04/06 08:57:27;;;;;;;12.60;8.65;;;;;;;16.35;48.81;101346.30;1613920;89;21114;-65
2022/04/06 08:59:56;;;;;;;8.95;8.00;;;;;;;16.36;48.92;101341.91;1611908;89;21105;-66
2022/04/06 09:02:24;;;;;;;12.75;9.75;;;;;;;16.45;48.85;101346.80;1595521;89;21063;-65
2022/04/06 09:04:53;;;;;;;13.78;9.35;;;;;;;16.47;48.78;101339.73;1668669;82;21035;-65
2022/04/06 09:07:22;;;;;;;14.28;9.60;;;;;;;16.53;48.66;101346.09;1752578;82;21033;-65
2022/04/06 09:09:52;;;;;;;10.93;8.60;;;;;;;16.57;48.34;101346.42;1751638;81;21535;-65
2022/04/06 09:12:21;;;;;;;11.60;7.22;;;;;;;16.55;48.37;101342.99;1687419;84;21105;-65
2022/04/06 09:14:48;;;;;;;11.63;7.67;;;;;;;16.54;48.45;101341.27;1685934;84;20993;-65
2022/04/06 09:17:20;;;;;;;14.18;8.15;;;;;;;16.54;48.41;101343.89;1684652;84;21086;-66
2022/04/06 09:19:49;;;;;;;13.72;7.62;;;;;;;16.55;48.50;101339.05;1684631;84;21483;-65
2022/04/06 09:22:16;;;;;;;11.12;7.62;;;;;;;16.57;48.45;101338.53;1683231;84;21029;-65
2022/04/06 09:24:43;;;;;;;10.45;6.75;;;;;;;16.59;48.41;101339.34;1699028;84;21061;-65
2022/04/06 09:27:12;;;;;;;9.48;6.30;;;;;;;16.59;48.49;101343.28;1684491;84;21049;-65
2022/04/06 09:29:39;;;;;;;11.05;7.53;;;;;;;16.61;48.61;101345.39;1688340;84;21029;-65
2022/04/06 09:32:10;;;;;;;15.78;6.80;;;;;;;16.64;48.38;101346.57;1681414;84;21017;-65
2022/04/06 09:34:42;;;;;;;9.98;6.20;;;;;;;16.64;48.21;101346.13;1673942;85;21086;-66
2022/04/06 09:37:30;;;;;;;13.35;6.75;;;;;;;16.66;48.19;101344.74;1654821;85;21595;-66
2022/04/06 09:40:09;;;;;;;15.83;7.12;;;;;;;16.65;48.15;101343.88;1635012;86;21515;-66
2022/04/06 09:42:37;;;;;;;9.93;6.65;;;;;;;16.63;48.19;101344.88;1644603;86;21095;-66
2022/04/06 09:47:54;;;;;;;9.90;6.45;;;;;;;16.62;48.48;101340.52;1643977;86;21090;-64
2022/04/06 09:50:23;;;;;;;11.50;6.28;;;;;;;16.63;48.18;101346.19;1647560;86;20995;-65
2022/04/06 09:52:51;;;;;;;10.95;5.58;;;;;;;16.62;48.23;101348.40;1641082;86;21507;-65
2022/04/06 09:55:21;;;;;;;8.65;5.62;;;;;;;16.60;48.22;101348.91;1646808;86;21098;-64
2022/04/06 09:57:53;;;;;;;15.23;6.30;;;;;;;16.56;48.24;101355.20;1645827;86;21027;-65
2022/04/06 10:00:22;;;;;;;10.03;5.65;;;;;;;16.52;48.31;101353.14;1643257;86;21103;-65
2022/04/06 10:03:10;;;;;;;7.28;4.80;;;;;;;16.53;48.59;101352.67;1646608;86;21054;-64
2022/04/06 10:05:39;;;;;;;9.60;4.92;;;;;;;16.50;48.54;101358.05;1650067;86;21089;-65
2022/04/06 10:08:09;;;;;;;5.75;4.47;;;;;;;16.52;48.79;101358.85;1642799;86;21522;-65
2022/04/06 10:10:40;;;;;;;9.30;4.17;;;;;;;16.56;48.55;101363.08;1673171;85;21584;-64
2022/04/06 10:13:10;;;;;;;7.58;3.75;;;;;;;16.59;48.52;101361.67;1673397;84;21515;-64
2022/04/06 10:15:37;;;;;;;8.50;3.65;;;;;;;16.59;48.50;101358.56;1673052;86;21563;-65
2022/04/06 10:18:05;;;;;;;4.83;2.72;;;;;;;16.59;48.55;101362.98;1673372;84;21035;-64
2022/04/06 10:21:11;;;;;;;7.65;2.92;;;;;;;16.55;48.66;101358.75;1673657;86;21042;-65
2022/04/06 10:24:22;;;;;;;6.80;2.87;;;;;;;16.53;48.75;101359.23;1669366;86;21042;-65
2022/04/06 10:27:17;;;;;;;3.12;2.08;;;;;;;16.51;48.87;101357.98;1673230;86;21073;-65
2022/04/06 10:30:16;;;;;;;3.00;1.95;;;;;;;16.47;48.85;101362.05;1617385;88;21126;-66
2022/04/06 10:32:48;;;;;;;4.65;1.90;;;;;;;16.49;48.74;101362.86;1612201;89;21089;-64
2022/04/06 10:35:34;;;;;;;3.95;1.77;;;;;;;16.48;48.62;101363.78;1611923;89;21114;-66
2022/04/06 10:38:09;;;;;;;3.37;2.02;;;;;;;16.45;48.65;101362.56;1693640;85;21050;-65
2022/04/06 10:40:55;;;;;;;1.57;1.30;;;;;;;16.43;48.69;101363.08;1692845;85;21526;-66
2022/04/06 10:43:50;;;;;;;3.15;2.10;;;;;;;16.42;48.75;101361.38;1692809;84;21082;-66
2022/04/06 10:46:15;;;;;;;;;;;;;;;16.43;48.75;101363.08;1690232;85;21617;-65
2022/04/06 10:49:10;;;;;;;2.75;1.75;;;;;;;16.44;48.96;101360.87;1692954;85;20130;-66
2022/04/06 10:51:45;;;;;;;4.12;2.30;;;;;;;16.44;49.05;101360.42;1691313;85;21008;-66
2022/04/06 10:54:19;;;;;;;9.78;2.55;;;;;;;16.45;49.17;101358.17;1692308;85;21109;-65
2022/04/06 10:56:55;;;;;;;6.15;2.10;;;;;;;16.48;49.25;101362.47;1690622;85;21101;-66
2022/04/06 10:59:24;;;;;;;4.33;2.40;;;;;;;16.51;49.19;101365.00;1689476;85;21578;-66
2022/04/06 11:02:25;;;;;;;6.17;2.90;;;;;;;16.54;49.13;101358.34;1689117;85;21020;-67
2022/04/06 11:04:53;;;;;;;4.97;2.42;;;;;;;16.59;49.07;101364.30;1694923;84;22208;-65
2022/04/06 11:10:29;;;;;;;6.00;2.85;;;;;;;16.59;49.02;101366.92;1753660;80;21089;-66
2022/04/06 11:13:04;;;;;;;7.28;2.85;;;;;;;16.56;48.98;101365.26;1753673;82;21014;-64
2022/04/06 11:15:37;;;;;;;5.12;2.83;;;;;;;16.54;49.09;101368.84;1753592;82;21524;-64
2022/04/06 11:18:08;;;;;;;3.75;1.75;;;;;;;16.52;49.06;101366.73;1753936;82;20990;-66
2022/04/06 11:20:37;;;;;;;3.33;1.80;;;;;;;16.49;48.84;101361.54;1750018;82;21018;-63
2022/04/06 11:23:07;;;;;;;2.65;1.60;;;;;;;16.47;48.69;101358.11;1753634;82;21033;-65
2022/04/06 11:25:33;;;;;;;2.15;1.32;;;;;;;16.46;48.62;101359.91;1753955;82;21452;-64
2022/04/06 11:28:08;;;;;;;2.00;1.27;;;;;;;16.44;48.51;101356.93;1753709;82;21526;-64
2022/04/06 11:30:36;;;;;;;2.25;1.60;;;;;;;16.43;48.43;101359.14;1753933;82;20986;-64
2022/04/06 11:33:06;;;;;;;3.08;1.80;;;;;;;16.47;48.38;101360.73;1753761;82;22001;-64
2022/04/06 11:35:38;;;;;;;1.80;1.30;;;;;;;16.40;48.43;101357.95;1753919;82;21007;-64
2022/04/06 11:38:07;;;;;;;2.40;1.52;;;;;;;16.35;48.54;101358.56;1754097;82;20987;-64
2022/04/06 11:40:42;;;;;;;2.10;1.45;;;;;;;16.29;48.63;101356.58;1754141;82;20982;-64